Time;durP1;ratioP1;P1;durP2;ratioP2;P2;SDS_P1;SDS_P2;PMS_P1;PMS_P2;Temp;Humidity;BMP_temperature;BMP_pressure;BME280_temperature;BME280_humidity;BME280_pressure;Samples;Min_cycle;Max_cycle;Signal;HPM_P1;HPM_P2
2023/06/04 00:02:13;;;;;;;3.40;1.30;;;;;;;10.65;100.00;101525.41;107209;1282;58302;-77
2023/06/04 00:04:39;;;;;;;3.00;1.20;;;;;;;10.62;100.00;101523.61;106844;1281;58121;-78
2023/06/04 00:07:05;;;;;;;4.70;1.90;;;;;;;10.56;100.00;101519.77;107210;1281;72551;-78
2023/06/04 00:09:30;;;;;;;5.60;1.40;;;;;;;10.54;100.00;101519.98;107188;1281;58134;-77
2023/06/04 00:11:56;;;;;;;6.20;1.80;;;;;;;10.53;100.00;101525.06;107262;1282;58135;-77
2023/06/04 00:14:21;;;;;;;5.00;1.60;;;;;;;10.51;100.00;101526.70;107231;1283;58162;-78
2023/06/04 00:16:47;;;;;;;4.10;1.60;;;;;;;10.49;100.00;101524.02;106765;1286;58101;-78
2023/06/04 00:19:12;;;;;;;6.60;2.10;;;;;;;10.46;100.00;101523.33;106785;1282;58340;-78
2023/06/04 00:21:38;;;;;;;9.30;1.90;;;;;;;10.43;100.00;101524.00;107193;1282;58104;-78
2023/06/04 00:24:04;;;;;;;4.20;1.90;;;;;;;10.39;100.00;101525.53;106718;1283;59043;-78
2023/06/04 00:26:30;;;;;;;4.30;1.70;;;;;;;10.37;100.00;101530.82;107212;1283;58228;-78
2023/06/04 00:28:55;;;;;;;5.30;2.10;;;;;;;10.35;100.00;101530.29;107233;1283;58627;-78
2023/06/04 00:31:21;;;;;;;6.30;1.90;;;;;;;10.33;100.00;101531.36;106804;1283;58651;-77
2023/06/04 00:33:47;;;;;;;5.60;2.30;;;;;;;10.29;100.00;101532.51;107280;1282;74551;-78
2023/06/04 00:36:13;;;;;;;4.40;1.60;;;;;;;10.25;100.00;101532.98;107239;1282;58211;-77
2023/06/04 00:38:39;;;;;;;3.90;1.60;;;;;;;10.22;100.00;101538.31;106666;1289;58497;-77
2023/06/04 00:41:04;;;;;;;3.30;1.30;;;;;;;10.20;100.00;101539.12;106642;1286;58346;-78
2023/06/04 00:43:31;;;;;;;3.70;2.00;;;;;;;10.18;100.00;101541.50;106651;1286;58303;-78
2023/06/04 00:45:57;;;;;;;2.50;1.50;;;;;;;10.16;100.00;101538.49;106664;1286;58282;-78
2023/06/04 00:48:23;;;;;;;7.90;1.90;;;;;;;10.12;100.00;101536.94;106554;1286;58609;-78
2023/06/04 00:50:49;;;;;;;4.00;1.60;;;;;;;10.09;100.00;101537.19;106627;1286;58498;-78
2023/06/04 00:53:15;;;;;;;5.10;1.30;;;;;;;10.07;100.00;101542.05;106468;1287;58474;-78
2023/06/04 00:55:41;;;;;;;4.60;1.80;;;;;;;10.06;100.00;101541.40;106670;1286;73548;-78
2023/06/04 00:58:08;;;;;;;5.50;1.90;;;;;;;10.04;100.00;101547.09;106654;1286;58330;-78
2023/06/04 01:00:34;;;;;;;2.80;1.70;;;;;;;10.00;100.00;101542.28;106658;1286;72680;-78
2023/06/04 01:03:05;;;;;;;5.70;1.70;;;;;;;9.96;100.00;101544.42;106520;1286;58233;-78
2023/06/04 01:05:42;;;;;;;6.50;1.60;;;;;;;9.93;100.00;101543.34;106649;1286;60069;-78
2023/06/04 01:08:11;;;;;;;6.80;1.90;;;;;;;9.90;100.00;101544.56;106651;1287;73409;-78
2023/06/04 01:10:36;;;;;;;3.00;1.50;;;;;;;9.86;100.00;101546.70;107093;1283;73444;-77
2023/06/04 01:13:02;;;;;;;3.10;1.70;;;;;;;9.81;100.00;101553.31;106674;1283;58331;-77
2023/06/04 01:15:27;;;;;;;3.30;1.50;;;;;;;9.79;100.00;101551.06;107164;1282;58161;-77
2023/06/04 01:18:03;;;;;;;5.80;1.90;;;;;;;9.76;100.00;101551.69;107247;1283;58277;-78
2023/06/04 01:20:37;;;;;;;4.60;1.90;;;;;;;9.74;100.00;101555.20;107222;1282;74766;-78
2023/06/04 01:23:21;;;;;;;5.10;1.60;;;;;;;9.73;100.00;101557.87;107201;1282;74419;-77
2023/06/04 01:25:49;;;;;;;6.40;2.30;;;;;;;9.72;100.00;101565.80;107184;1282;72974;-78
2023/06/04 01:28:16;;;;;;;4.40;1.70;;;;;;;9.73;100.00;101574.67;107201;1282;61965;-78
2023/06/04 01:30:45;;;;;;;3.10;1.40;;;;;;;9.73;100.00;101573.08;107164;1282;60046;-77
2023/06/04 01:33:13;;;;;;;4.00;1.70;;;;;;;9.74;100.00;101567.25;107213;1282;73790;-78
2023/06/04 01:35:39;;;;;;;5.90;1.60;;;;;;;9.74;100.00;101566.22;107193;1282;74214;-78
2023/06/04 01:38:06;;;;;;;4.40;1.80;;;;;;;9.71;100.00;101569.34;107237;1282;58348;-78
2023/06/04 01:40:32;;;;;;;4.20;1.80;;;;;;;9.68;100.00;101566.82;107184;1282;58324;-78
2023/06/04 01:42:58;;;;;;;7.60;2.30;;;;;;;9.66;100.00;101569.45;107226;1281;58294;-78
2023/06/04 01:45:25;;;;;;;7.60;2.30;;;;;;;9.65;100.00;101569.71;107203;1282;58268;-78
2023/06/04 01:47:52;;;;;;;6.40;2.00;;;;;;;9.65;100.00;101576.96;107223;1282;58669;-77
2023/06/04 01:50:17;;;;;;;4.20;1.90;;;;;;;9.67;100.00;101575.14;107241;1282;58488;-78
2023/06/04 01:52:43;;;;;;;6.60;2.00;;;;;;;9.67;100.00;101579.29;107210;1282;58203;-78
2023/06/04 01:55:14;;;;;;;5.10;2.00;;;;;;;9.70;100.00;101585.70;107219;1282;58374;-78
2023/06/04 01:57:40;;;;;;;5.10;2.10;;;;;;;9.70;100.00;101586.45;107227;1282;74552;-78
2023/06/04 02:00:09;;;;;;;5.60;1.80;;;;;;;9.70;100.00;101590.17;107176;1282;72700;-78
2023/06/04 02:02:36;;;;;;;5.60;1.90;;;;;;;9.71;100.00;101591.36;106712;1282;72624;-78
2023/06/04 02:05:02;;;;;;;5.50;1.80;;;;;;;9.74;100.00;101595.95;107223;1282;58499;-77
2023/06/04 02:07:27;;;;;;;7.80;1.90;;;;;;;9.77;100.00;101600.05;107223;1282;58249;-78
2023/06/04 02:09:53;;;;;;;6.50;1.90;;;;;;;9.80;100.00;101602.13;107208;1282;58333;-78
2023/06/04 02:12:18;;;;;;;5.40;2.00;;;;;;;9.83;100.00;101604.89;107158;1282;58259;-78
2023/06/04 02:14:47;;;;;;;5.60;2.00;;;;;;;9.88;100.00;101606.26;107177;1282;58263;-78
2023/06/04 02:17:13;;;;;;;3.90;2.20;;;;;;;9.93;100.00;101596.42;106813;1281;58615;-78
2023/06/04 02:19:44;;;;;;;5.70;2.30;;;;;;;9.98;100.00;101597.38;107206;1281;58762;-78
2023/06/04 02:22:11;;;;;;;6.10;1.90;;;;;;;9.99;100.00;101599.38;107041;1283;73677;-78
2023/06/04 02:24:38;;;;;;;5.80;2.10;;;;;;;10.06;100.00;101602.61;107184;1282;74250;-78
2023/06/04 02:27:05;;;;;;;5.20;2.00;;;;;;;10.14;100.00;101606.00;107191;1282;72445;-78
2023/06/04 02:29:31;;;;;;;6.80;2.00;;;;;;;10.19;100.00;101602.56;106829;1285;61042;-78
2023/06/04 02:31:56;;;;;;;7.90;2.40;;;;;;;10.24;100.00;101606.79;107157;1282;58256;-78
2023/06/04 02:34:23;;;;;;;5.60;1.70;;;;;;;10.29;100.00;101609.71;106869;1283;58734;-78
2023/06/04 02:36:50;;;;;;;7.70;2.70;;;;;;;10.35;100.00;101611.39;107204;1282;58229;-78
2023/06/04 02:39:19;;;;;;;7.30;2.90;;;;;;;10.43;100.00;101614.07;107167;1282;58213;-78
2023/06/04 02:41:45;;;;;;;9.80;3.30;;;;;;;10.53;100.00;101609.64;107153;1282;61567;-78
2023/06/04 02:44:11;;;;;;;8.00;3.00;;;;;;;10.65;100.00;101611.05;107191;1282;58256;-78
2023/06/04 02:46:37;;;;;;;6.50;2.90;;;;;;;10.87;100.00;101611.98;107064;1285;58270;-79
2023/06/04 02:49:03;;;;;;;8.20;2.40;;;;;;;11.24;100.00;101617.55;107236;1282;58507;-78
2023/06/04 02:51:28;;;;;;;7.80;2.60;;;;;;;11.60;100.00;101621.48;107155;1282;58228;-78
2023/06/04 02:53:54;;;;;;;7.80;2.60;;;;;;;11.80;100.00;101623.23;107206;1282;58244;-78
2023/06/04 02:56:20;;;;;;;7.60;2.50;;;;;;;11.83;100.00;101624.58;106942;1284;58366;-78
2023/06/04 02:58:56;;;;;;;6.20;2.20;;;;;;;11.82;100.00;101623.36;107160;1282;74323;-78
2023/06/04 03:01:23;;;;;;;11.00;2.30;;;;;;;11.80;100.00;101627.37;107168;1282;72630;-79
2023/06/04 03:03:49;;;;;;;8.60;1.80;;;;;;;11.79;100.00;101633.57;107015;1283;61641;-78
2023/06/04 03:06:16;;;;;;;4.00;2.10;;;;;;;11.83;100.00;101633.42;106683;1283;58254;-79
2023/06/04 03:08:42;;;;;;;3.70;1.80;;;;;;;11.87;100.00;101633.45;106719;1283;73658;-78
2023/06/04 03:11:08;;;;;;;8.20;2.00;;;;;;;11.95;100.00;101638.85;107154;1282;58899;-79
2023/06/04 03:13:35;;;;;;;4.40;2.00;;;;;;;12.17;100.00;101641.06;107176;1282;58298;-79
2023/06/04 03:16:01;;;;;;;3.60;1.90;;;;;;;12.52;100.00;101638.55;107185;1282;58208;-79
2023/06/04 03:18:27;;;;;;;3.40;1.50;;;;;;;13.02;100.00;101639.96;107204;1282;58121;-79
2023/06/04 03:20:54;;;;;;;4.30;1.50;;;;;;;13.64;100.00;101642.00;107150;1282;58188;-80
2023/06/04 03:23:20;;;;;;;17.50;1.90;;;;;;;14.32;100.00;101643.28;107059;1282;59903;-79
2023/06/04 03:25:46;;;;;;;3.40;1.20;;;;;;;14.99;100.00;101636.92;106943;1283;58327;-79
2023/06/04 03:28:12;;;;;;;7.00;1.40;;;;;;;15.58;100.00;101639.79;107168;1282;58281;-79
2023/06/04 03:30:37;;;;;;;5.20;1.30;;;;;;;16.04;100.00;101638.26;107165;1282;58276;-79
2023/06/04 03:33:03;;;;;;;6.70;1.80;;;;;;;16.41;100.00;101639.83;107196;1282;58238;-79
2023/06/04 03:35:28;;;;;;;4.70;1.20;;;;;;;16.71;100.00;101637.63;107155;1282;73454;-79
2023/06/04 03:37:54;;;;;;;1.90;1.20;;;;;;;16.93;100.00;101638.08;107147;1282;58360;-80
2023/06/04 03:40:20;;;;;;;3.20;1.50;;;;;;;17.29;100.00;101647.38;107172;1282;58498;-79
2023/06/04 03:42:45;;;;;;;7.40;1.30;;;;;;;17.58;99.99;101650.30;107207;1282;58257;-80
2023/06/04 03:45:11;;;;;;;3.40;1.50;;;;;;;17.80;98.35;101649.38;106755;1283;58391;-80
2023/06/04 03:47:38;;;;;;;8.00;1.50;;;;;;;18.00;94.92;101653.89;107186;1282;58290;-79
2023/06/04 03:50:05;;;;;;;2.80;1.40;;;;;;;18.15;93.04;101658.68;107171;1282;60996;-80
2023/06/04 03:52:31;;;;;;;3.40;1.40;;;;;;;18.44;91.43;101659.41;107196;1282;73605;-80
2023/06/04 03:54:56;;;;;;;1.80;1.20;;;;;;;18.80;90.31;101656.97;107195;1282;58159;-80
2023/06/04 03:57:22;;;;;;;4.20;1.60;;;;;;;19.11;85.30;101652.66;107186;1282;58244;-80
2023/06/04 03:59:48;;;;;;;4.60;2.00;;;;;;;19.18;84.29;101654.77;106729;1288;58383;-80
2023/06/04 04:02:14;;;;;;;3.70;1.40;;;;;;;19.28;81.12;101655.67;106995;1283;58297;-79
2023/06/04 04:04:40;;;;;;;3.70;1.30;;;;;;;19.43;80.69;101658.88;107117;1282;58292;-80
2023/06/04 04:07:07;;;;;;;7.90;1.20;;;;;;;19.58;78.86;101663.33;107094;1283;58423;-80
2023/06/04 04:09:34;;;;;;;4.30;1.40;;;;;;;19.67;78.50;101660.92;107068;1283;59145;-80
2023/06/04 04:12:00;;;;;;;3.40;1.20;;;;;;;19.91;75.97;101662.29;107133;1282;58104;-81
2023/06/04 04:14:25;;;;;;;9.80;1.40;;;;;;;19.93;74.64;101659.08;107236;1282;58431;-80
2023/06/04 04:16:50;;;;;;;4.90;1.30;;;;;;;19.90;71.28;101661.54;107206;1282;58246;-81
2023/06/04 04:19:16;;;;;;;3.90;1.30;;;;;;;19.74;70.00;101658.65;107191;1282;58138;-82
2023/06/04 04:21:42;;;;;;;2.40;1.20;;;;;;;19.70;69.71;101660.61;107151;1282;58318;-80
2023/06/04 04:24:07;;;;;;;3.20;1.30;;;;;;;19.88;69.18;101663.31;107058;1283;73526;-81
2023/06/04 04:26:34;;;;;;;6.80;1.40;;;;;;;19.94;67.11;101662.83;106677;1283;58384;-81
2023/06/04 04:28:59;;;;;;;5.10;1.50;;;;;;;19.73;66.26;101666.91;107054;1283;58496;-80
2023/06/04 04:31:27;;;;;;;1.80;1.30;;;;;;;19.62;65.72;101666.23;106611;1283;58394;-82
2023/06/04 04:33:55;;;;;;;1.90;1.20;;;;;;;19.67;66.10;101671.33;106898;1283;58618;-82
2023/06/04 04:36:21;;;;;;;7.80;1.20;;;;;;;19.95;65.94;101673.28;106456;1282;74573;-82
2023/06/04 04:38:46;;;;;;;3.70;1.30;;;;;;;20.37;65.15;101672.84;107162;1282;58343;-82
2023/06/04 04:41:12;;;;;;;1.60;1.10;;;;;;;20.57;62.38;101669.80;106640;1283;58651;-81
2023/06/04 04:43:40;;;;;;;2.20;1.30;;;;;;;20.64;62.56;101668.23;106961;1283;58217;-81
2023/06/04 04:46:06;;;;;;;7.70;1.40;;;;;;;21.11;62.31;101677.55;107155;1282;58165;-81
2023/06/04 04:48:33;;;;;;;2.50;1.10;;;;;;;21.35;60.66;101676.70;106646;1283;58429;-81
2023/06/04 04:50:58;;;;;;;7.10;1.30;;;;;;;21.40;59.94;101674.77;106963;1283;58749;-81
2023/06/04 04:53:24;;;;;;;2.40;1.10;;;;;;;21.43;57.89;101674.45;106692;1282;58683;-82
2023/06/04 04:55:50;;;;;;;5.40;1.30;;;;;;;21.15;57.11;101675.61;107161;1282;58267;-81
2023/06/04 04:58:15;;;;;;;1.20;1.00;;;;;;;21.04;55.89;101673.41;107222;1282;58177;-82
2023/06/04 05:00:41;;;;;;;2.00;1.10;;;;;;;21.06;56.90;101676.98;107175;1282;73095;-81
2023/06/04 05:03:07;;;;;;;2.00;1.10;;;;;;;21.23;56.21;101679.51;107136;1282;58483;-83
2023/06/04 05:05:33;;;;;;;2.40;1.00;;;;;;;21.43;54.37;101675.65;107024;1283;58258;-84
2023/06/04 05:07:59;;;;;;;5.60;1.10;;;;;;;21.40;52.90;101677.15;107087;1282;58222;-86
2023/06/04 05:10:24;;;;;;;4.00;1.20;;;;;;;21.63;52.40;101687.89;106698;1283;58394;-86
2023/06/04 05:12:55;;;;;;;2.00;0.90;;;;;;;22.02;50.92;101692.14;106598;1283;58312;-84
2023/06/04 05:15:20;;;;;;;2.80;1.00;;;;;;;22.25;49.55;101695.30;107161;1282;72594;-84
2023/06/04 05:17:46;;;;;;;1.20;1.00;;;;;;;22.28;49.05;101695.36;106752;1283;58351;-82
2023/06/04 05:20:13;;;;;;;5.00;1.00;;;;;;;22.27;48.75;101689.52;106668;1282;58614;-82
2023/06/04 05:22:39;;;;;;;4.10;1.00;;;;;;;22.42;48.71;101692.23;106923;1283;58637;-80
2023/06/04 05:25:06;;;;;;;3.20;0.90;;;;;;;22.50;48.14;101694.25;107187;1282;58260;-81
2023/06/04 05:27:32;;;;;;;1.20;1.00;;;;;;;22.33;47.83;101692.29;107161;1282;58306;-80
2023/06/04 05:29:58;;;;;;;3.30;0.90;;;;;;;22.46;47.57;101697.80;107169;1282;58334;-81
2023/06/04 05:32:28;;;;;;;2.90;0.80;;;;;;;22.35;46.31;101697.48;107130;1282;58370;-81
2023/06/04 05:34:57;;;;;;;2.10;1.00;;;;;;;22.24;45.54;101693.83;107135;1282;74692;-82
2023/06/04 05:37:29;;;;;;;6.10;1.10;;;;;;;22.24;45.55;101698.62;107168;1282;74479;-82
2023/06/04 05:39:57;;;;;;;9.20;1.00;;;;;;;22.16;44.82;101699.95;107155;1282;73449;-82
2023/06/04 05:42:24;;;;;;;4.20;1.10;;;;;;;22.13;45.30;101695.84;106532;1282;61239;-83
2023/06/04 05:44:50;;;;;;;2.10;0.90;;;;;;;22.25;44.85;101699.38;107164;1282;59987;-82
2023/06/04 05:47:19;;;;;;;2.80;0.80;;;;;;;22.25;44.09;101698.60;106943;1283;58414;-81
2023/06/04 05:49:45;;;;;;;7.30;0.80;;;;;;;22.29;44.81;101699.11;106705;1283;73217;-82
2023/06/04 05:52:10;;;;;;;1.70;1.10;;;;;;;22.55;44.47;101696.96;106913;1283;58315;-82
2023/06/04 05:54:39;;;;;;;4.40;0.80;;;;;;;23.04;44.54;101701.55;107181;1282;59118;-82
2023/06/04 05:57:05;;;;;;;1.40;0.90;;;;;;;23.61;43.48;101702.10;107106;1282;59534;-84
2023/06/04 05:59:32;;;;;;;5.30;0.90;;;;;;;23.82;42.22;101691.46;107034;1283;58178;-83
2023/06/04 06:01:57;;;;;;;6.70;1.10;;;;;;;23.85;42.08;101690.38;106885;1285;58592;-82
2023/06/04 06:04:23;;;;;;;2.80;0.90;;;;;;;24.00;42.07;101683.35;107108;1282;58313;-81
2023/06/04 06:06:49;;;;;;;4.50;0.90;;;;;;;24.12;42.55;101684.11;106896;1283;58279;-83
2023/06/04 06:09:18;;;;;;;2.10;0.80;;;;;;;24.60;41.33;101689.94;107161;1281;58278;-82
2023/06/04 06:11:43;;;;;;;6.30;1.10;;;;;;;24.71;40.77;101679.30;107182;1282;58364;-83
2023/06/04 06:14:09;;;;;;;5.20;0.90;;;;;;;24.64;38.95;101679.23;106708;1283;58547;-82
2023/06/04 06:16:35;;;;;;;3.00;0.80;;;;;;;24.44;39.15;101677.51;107135;1282;58250;-82
2023/06/04 06:19:01;;;;;;;2.00;0.90;;;;;;;24.42;38.07;101679.93;107050;1283;58568;-82
2023/06/04 06:21:27;;;;;;;2.40;0.90;;;;;;;24.28;37.67;101676.16;106605;1283;58296;-81
2023/06/04 06:23:53;;;;;;;1.40;0.90;;;;;;;24.44;37.46;101680.04;107243;1282;58567;-82
2023/06/04 06:26:19;;;;;;;2.70;1.00;;;;;;;24.72;36.88;101680.59;106918;1282;72585;-82
2023/06/04 06:28:44;;;;;;;3.60;0.80;;;;;;;24.61;36.82;101676.73;107143;1282;58471;-82
2023/06/04 06:31:10;;;;;;;1.70;0.90;;;;;;;24.89;37.28;101677.73;107197;1282;58236;-81
2023/06/04 06:33:41;;;;;;;1.20;0.70;;;;;;;25.49;37.16;101677.28;107200;1282;58245;-82
2023/06/04 06:36:12;;;;;;;2.60;0.70;;;;;;;25.77;35.81;101677.88;107159;1282;73363;-82
2023/06/04 06:38:38;;;;;;;4.80;1.10;;;;;;;26.02;35.75;101673.48;106879;1283;73342;-82
2023/06/04 06:41:04;;;;;;;3.90;0.90;;;;;;;26.34;36.08;101677.06;107148;1282;58220;-82
2023/06/04 06:43:31;;;;;;;3.50;1.00;;;;;;;26.46;34.92;101669.50;106926;1283;59052;-82
2023/06/04 06:45:57;;;;;;;5.50;1.00;;;;;;;26.59;34.90;101662.09;106588;1283;58475;-83
2023/06/04 06:48:23;;;;;;;1.50;0.80;;;;;;;26.45;34.92;101655.42;106943;1283;58549;-82
2023/06/04 06:50:48;;;;;;;5.20;0.80;;;;;;;26.30;34.74;101653.05;107175;1282;58285;-82
2023/06/04 06:53:14;;;;;;;4.30;0.80;;;;;;;26.23;33.82;101660.14;107153;1282;58248;-83
2023/06/04 06:55:39;;;;;;;9.20;0.70;;;;;;;25.79;33.80;101655.29;107210;1282;58338;-79
2023/06/04 06:58:05;;;;;;;8.80;1.20;;;;;;;26.04;34.33;101665.46;106828;1282;73019;-79
2023/06/04 07:00:31;;;;;;;2.10;1.10;;;;;;;26.14;33.79;101666.89;107036;1282;59173;-79
2023/06/04 07:02:56;;;;;;;1.40;0.80;;;;;;;26.00;34.28;101660.59;107167;1281;58214;-81
2023/06/04 07:05:22;;;;;;;5.30;1.00;;;;;;;26.22;33.44;101666.76;107156;1282;58357;-79
2023/06/04 07:07:47;;;;;;;0.70;0.70;;;;;;;26.09;33.88;101669.50;107122;1283;58250;-79
2023/06/04 07:10:14;;;;;;;4.30;1.10;;;;;;;26.03;33.36;101663.40;106842;1285;71516;-79
2023/06/04 07:12:39;;;;;;;1.50;0.60;;;;;;;26.10;33.75;101668.62;107128;1282;58477;-81
2023/06/04 07:15:09;;;;;;;5.80;1.20;;;;;;;26.10;32.94;101669.96;107150;1282;58226;-81
2023/06/04 07:17:37;;;;;;;6.90;0.80;;;;;;;25.82;32.85;101674.18;106746;1283;74306;-79
2023/06/04 07:20:09;;;;;;;2.20;0.80;;;;;;;25.55;32.70;101669.61;106903;1283;73196;-80
2023/06/04 07:22:35;;;;;;;2.50;1.00;;;;;;;25.73;33.25;101675.67;107012;1283;73499;-79
2023/06/04 07:25:01;;;;;;;8.00;1.00;;;;;;;25.85;32.59;101674.06;106916;1283;58500;-78
2023/06/04 07:27:26;;;;;;;5.00;1.00;;;;;;;26.12;32.76;101675.48;107180;1282;58480;-78
2023/06/04 07:29:52;;;;;;;2.40;0.70;;;;;;;26.17;32.52;101673.69;107194;1282;58678;-78
2023/06/04 07:32:18;;;;;;;2.10;0.60;;;;;;;26.17;32.57;101679.44;107141;1282;58237;-78
2023/06/04 07:34:44;;;;;;;1.10;1.00;;;;;;;26.45;32.83;101668.84;106838;1283;59080;-77
2023/06/04 07:37:09;;;;;;;1.00;0.70;;;;;;;27.19;32.41;101672.75;107286;1282;58742;-78
2023/06/04 07:39:36;;;;;;;6.20;0.70;;;;;;;27.01;30.89;101681.56;107173;1282;73815;-79
2023/06/04 07:42:01;;;;;;;4.40;1.10;;;;;;;26.82;31.65;101669.64;106933;1283;58277;-78
2023/06/04 07:44:27;;;;;;;4.90;1.10;;;;;;;27.19;31.75;101676.30;107183;1282;58192;-79
2023/06/04 07:46:53;;;;;;;3.90;1.20;;;;;;;27.45;30.97;101681.33;107160;1282;58288;-79
2023/06/04 07:49:18;;;;;;;3.60;0.90;;;;;;;27.39;30.94;101678.46;107194;1282;58279;-78
2023/06/04 07:51:44;;;;;;;8.90;0.80;;;;;;;27.49;31.05;101678.75;106848;1282;58425;-81
2023/06/04 07:54:10;;;;;;;1.30;0.80;;;;;;;27.52;29.98;101677.52;107151;1282;73156;-80
2023/06/04 07:56:35;;;;;;;4.80;0.90;;;;;;;27.69;29.91;101678.67;106722;1283;58207;-80
2023/06/04 07:59:01;;;;;;;3.00;0.80;;;;;;;27.58;29.45;101680.16;107212;1282;58365;-81
2023/06/04 08:01:27;;;;;;;5.00;1.00;;;;;;;27.04;29.17;101676.45;106664;1282;58403;-81
2023/06/04 08:03:53;;;;;;;1.80;1.00;;;;;;;26.54;29.39;101675.77;107207;1282;58324;-81
2023/06/04 08:06:18;;;;;;;2.40;0.80;;;;;;;26.31;30.32;101680.25;107122;1282;58169;-80
2023/06/04 08:08:45;;;;;;;0.90;0.70;;;;;;;26.74;30.00;101674.83;107210;1282;58692;-81
2023/06/04 08:11:15;;;;;;;2.60;0.70;;;;;;;27.09;29.72;101677.23;107158;1282;73764;-81
2023/06/04 08:13:40;;;;;;;2.80;0.70;;;;;;;27.22;29.88;101677.27;107194;1282;73490;-81
2023/06/04 08:16:07;;;;;;;2.50;0.90;;;;;;;27.78;31.35;101670.60;107158;1283;58571;-81
2023/06/04 08:18:33;;;;;;;3.10;0.80;;;;;;;28.41;29.53;101669.48;106922;1282;58260;-81
2023/06/04 08:20:58;;;;;;;0.60;0.60;;;;;;;28.02;28.66;101677.02;107088;1283;58293;-80
2023/06/04 08:23:24;;;;;;;1.20;0.70;;;;;;;27.68;28.45;101673.50;107158;1282;58285;-81
2023/06/04 08:25:50;;;;;;;1.00;0.70;;;;;;;27.41;29.39;101672.73;107172;1282;58243;-80
2023/06/04 08:28:16;;;;;;;1.60;0.70;;;;;;;27.81;29.74;101676.95;107182;1282;58659;-82
2023/06/04 08:30:45;;;;;;;9.10;1.00;;;;;;;27.92;28.37;101671.21;106870;1283;60366;-80
2023/06/04 08:33:11;;;;;;;7.70;0.90;;;;;;;27.55;27.86;101677.05;106897;1283;74654;-81
2023/06/04 08:35:37;;;;;;;1.90;0.90;;;;;;;26.80;28.17;101676.75;107146;1282;58245;-80
2023/06/04 08:38:02;;;;;;;2.90;0.70;;;;;;;26.54;29.05;101677.84;106889;1282;343482;-81
2023/06/04 08:40:28;;;;;;;1.30;0.80;;;;;;;26.85;29.26;101677.09;107071;1283;58223;-80
2023/06/04 08:42:58;;;;;;;1.90;0.80;;;;;;;26.60;29.11;101672.91;107167;1282;58308;-81
2023/06/04 08:45:25;;;;;;;3.70;0.80;;;;;;;26.52;29.52;101672.65;106746;1283;74618;-80
2023/06/04 08:47:51;;;;;;;3.60;0.80;;;;;;;26.23;29.27;101676.20;107138;1282;73346;-80
2023/06/04 08:50:20;;;;;;;1.60;0.70;;;;;;;26.13;29.45;101669.82;107138;1282;58223;-81
2023/06/04 08:52:47;;;;;;;10.30;1.20;;;;;;;26.45;29.79;101672.45;107155;1282;61551;-81
2023/06/04 08:55:14;;;;;;;6.10;0.80;;;;;;;26.51;29.54;101669.23;107184;1282;58475;-80
2023/06/04 08:57:40;;;;;;;1.90;0.70;;;;;;;26.67;30.11;101670.50;107181;1282;74637;-81
2023/06/04 09:00:07;;;;;;;3.40;0.90;;;;;;;27.24;30.04;101664.92;107198;1282;58612;-81
2023/06/04 09:02:37;;;;;;;1.50;0.90;;;;;;;27.63;28.88;101672.20;106904;1283;72626;-80
2023/06/04 09:05:04;;;;;;;6.80;0.80;;;;;;;27.04;28.87;101667.03;107111;1282;60094;-80
2023/06/04 09:07:30;;;;;;;3.00;0.70;;;;;;;26.94;29.22;101667.27;107138;1282;61099;-80
2023/06/04 09:09:56;;;;;;;3.20;0.90;;;;;;;27.21;29.74;101667.77;107176;1282;58705;-80
2023/06/04 09:12:25;;;;;;;3.90;0.80;;;;;;;27.38;29.13;101674.95;107200;1282;58247;-80
2023/06/04 09:14:50;;;;;;;1.70;0.60;;;;;;;27.38;28.79;101673.38;106839;1283;72605;-79
2023/06/04 09:17:22;;;;;;;1.60;0.80;;;;;;;27.17;29.14;101664.73;107155;1282;58530;-80
2023/06/04 09:19:48;;;;;;;8.90;1.00;;;;;;;27.06;28.94;101658.96;106917;1283;61336;-80
2023/06/04 09:22:13;;;;;;;7.10;0.90;;;;;;;26.89;29.80;101664.27;107200;1282;58532;-78
2023/06/04 09:24:49;;;;;;;5.00;0.70;;;;;;;26.83;28.74;101660.73;107211;1282;58417;-78
2023/06/04 09:27:25;;;;;;;3.00;0.50;;;;;;;26.09;29.42;101656.90;107161;1282;73728;-79
2023/06/04 09:30:00;;;;;;;10.30;0.80;;;;;;;25.79;29.90;101650.73;107169;1282;59684;-78
2023/06/04 09:32:28;;;;;;;1.30;0.50;;;;;;;25.79;30.66;101654.67;107186;1282;61171;-79
2023/06/04 09:34:57;;;;;;;2.80;0.70;;;;;;;25.86;29.85;101655.64;107176;1282;73495;-78
2023/06/04 09:37:23;;;;;;;2.00;1.10;;;;;;;25.58;30.48;101649.02;107163;1282;74555;-80
2023/06/04 09:39:55;;;;;;;1.90;0.70;;;;;;;25.79;31.41;101644.50;107200;1282;58289;-79
2023/06/04 09:42:22;;;;;;;7.60;0.70;;;;;;;26.10;30.77;101642.64;107153;1282;60478;-79
2023/06/04 09:44:48;;;;;;;0.80;0.70;;;;;;;26.18;30.82;101629.76;106726;1282;60765;-78
2023/06/04 09:47:15;;;;;;;4.40;0.80;;;;;;;26.19;31.01;101626.85;107181;1282;58191;-78
2023/06/04 09:49:45;;;;;;;4.20;0.60;;;;;;;26.22;30.22;101631.16;107197;1282;58469;-79
2023/06/04 09:52:12;;;;;;;2.70;0.80;;;;;;;25.97;29.64;101633.17;106797;1283;73476;-78
2023/06/04 09:54:39;;;;;;;1.90;0.60;;;;;;;25.79;29.88;101630.84;106751;1283;59575;-79
2023/06/04 09:57:18;;;;;;;1.80;0.70;;;;;;;25.54;30.13;101630.84;106735;1283;61636;-79
2023/06/04 09:59:50;;;;;;;0.80;0.40;;;;;;;25.52;30.16;101619.40;107181;1282;73658;-80
2023/06/04 10:02:22;;;;;;;1.60;0.60;;;;;;;25.40;31.03;101612.80;107168;1282;74675;-79
2023/06/04 10:04:56;;;;;;;2.20;0.50;;;;;;;25.40;31.14;101616.77;107191;1282;73795;-80
2023/06/04 10:07:24;;;;;;;10.80;1.50;;;;;;;25.01;31.35;101616.16;107136;1282;61216;-80
2023/06/04 10:09:50;;;;;;;3.20;0.50;;;;;;;24.99;31.69;101614.87;106584;1287;61140;-79
2023/06/04 10:12:21;;;;;;;3.90;0.60;;;;;;;24.99;30.22;101616.77;106489;1287;58476;-80
2023/06/04 10:14:57;;;;;;;3.00;0.70;;;;;;;24.56;30.57;101608.38;106596;1287;74398;-80
2023/06/04 10:17:24;;;;;;;2.70;0.60;;;;;;;24.56;31.73;101611.41;106555;1287;73022;-79
2023/06/04 10:19:53;;;;;;;5.50;0.90;;;;;;;24.79;31.56;101617.92;106567;1287;61256;-80
2023/06/04 10:22:20;;;;;;;1.90;0.50;;;;;;;24.58;31.56;101613.60;106551;1287;59825;-79
2023/06/04 10:24:46;;;;;;;3.60;0.60;;;;;;;24.83;31.46;101609.58;106597;1288;58546;-79
2023/06/04 10:27:12;;;;;;;4.60;0.50;;;;;;;25.14;31.09;101609.59;106453;1288;58193;-79
2023/06/04 10:29:39;;;;;;;17.30;0.80;;;;;;;25.17;30.43;101606.71;106550;1288;58316;-82
2023/06/04 10:32:06;;;;;;;1.10;0.60;;;;;;;25.14;30.47;101606.93;106220;1289;58239;-82
2023/06/04 10:34:32;;;;;;;1.10;0.50;;;;;;;25.09;30.34;101607.06;106501;1287;58291;-80
2023/06/04 10:36:57;;;;;;;0.90;0.60;;;;;;;25.05;30.75;101597.95;106312;1288;58293;-78
2023/06/04 10:39:32;;;;;;;3.80;0.80;;;;;;;25.34;31.37;101588.20;106598;1288;58441;-77
2023/06/04 10:42:05;;;;;;;2.90;0.40;;;;;;;25.25;30.45;101591.63;106879;1285;73283;-78
2023/06/04 10:44:43;;;;;;;2.30;0.70;;;;;;;25.19;30.81;101599.79;106875;1285;60217;-77
2023/06/04 10:47:18;;;;;;;4.30;0.50;;;;;;;24.74;30.15;101591.48;106738;1285;61182;-78
2023/06/04 10:49:44;;;;;;;0.60;0.60;;;;;;;24.58;30.82;101591.16;106926;1284;73708;-78
2023/06/04 10:52:10;;;;;;;1.40;0.50;;;;;;;24.73;31.25;101591.30;106901;1285;58319;-78
2023/06/04 10:54:36;;;;;;;1.80;0.80;;;;;;;24.76;30.38;101591.58;106928;1284;58244;-79
2023/06/04 10:57:13;;;;;;;0.90;0.50;;;;;;;24.76;30.35;101591.83;106957;1284;58310;-79
2023/06/04 10:59:39;;;;;;;3.30;0.60;;;;;;;24.63;29.51;101595.75;106897;1284;60219;-78
2023/06/04 11:02:09;;;;;;;1.00;0.50;;;;;;;24.26;29.53;101596.08;106921;1283;58354;-78
2023/06/04 11:04:36;;;;;;;6.20;0.90;;;;;;;24.22;29.26;101595.99;106912;1284;74457;-77
2023/06/04 11:07:10;;;;;;;9.00;2.40;;;;;;;24.10;29.77;101591.83;106849;1283;72590;-78
2023/06/04 11:09:57;;;;;;;4.30;0.80;;;;;;;24.10;30.57;101597.83;106903;1285;60453;-78
2023/06/04 11:12:22;;;;;;;1.40;0.50;;;;;;;24.10;31.13;101594.23;106951;1284;61005;-77
2023/06/04 11:14:58;;;;;;;1.60;0.40;;;;;;;24.36;31.27;101598.09;106905;1285;58294;-77